createdAt,value
2022-11-15T00:01:03.046Z,17.20
2022-11-15T00:03:31.744Z,18.55
2022-11-15T00:06:04.238Z,17.15
2022-11-15T00:08:33.102Z,19.83
2022-11-15T00:11:01.758Z,16.55
2022-11-15T00:13:30.401Z,14.70
2022-11-15T00:16:01.385Z,19.63
2022-11-15T00:18:29.321Z,19.00
2022-11-15T00:20:57.042Z,16.73
2022-11-15T00:23:24.651Z,20.10
2022-11-15T00:25:58.293Z,16.52
2022-11-15T00:28:26.085Z,16.95
2022-11-15T00:30:53.974Z,15.07
2022-11-15T00:33:22.893Z,16.47
2022-11-15T00:35:51.526Z,16.75
2022-11-15T00:38:19.074Z,16.85
2022-11-15T00:40:46.600Z,17.50
2022-11-15T00:43:14.256Z,16.23
2022-11-15T00:45:41.723Z,18.90
2022-11-15T00:48:09.428Z,16.38
2022-11-15T00:50:38.531Z,17.10
2022-11-15T00:53:06.795Z,14.32
2022-11-15T00:55:34.496Z,16.67
2022-11-15T00:58:02.014Z,20.42
2022-11-15T01:00:29.788Z,17.42
2022-11-15T01:02:57.585Z,16.88
2022-11-15T01:05:25.380Z,14.75
2022-11-15T01:07:55.210Z,18.25
2022-11-15T01:10:22.951Z,15.52
2022-11-15T01:12:51.483Z,14.57
2022-11-15T01:15:19.366Z,15.15
2022-11-15T01:17:47.135Z,17.73
2022-11-15T01:20:14.833Z,15.47
2022-11-15T01:22:42.321Z,15.88
2022-11-15T01:25:11.198Z,16.15
2022-11-15T01:27:38.727Z,17.00
2022-11-15T01:30:07.712Z,15.07
2022-11-15T01:32:35.418Z,17.98
2022-11-15T01:35:03.711Z,15.23
2022-11-15T01:37:31.361Z,14.03
2022-11-15T01:39:58.862Z,15.20
2022-11-15T01:42:27.721Z,15.88
2022-11-15T01:44:55.908Z,14.80
2022-11-15T01:47:25.915Z,15.73
2022-11-15T01:49:56.877Z,14.70
2022-11-15T01:52:27.083Z,13.88
2022-11-15T01:54:58.910Z,22.25
2022-11-15T01:57:27.841Z,12.90
2022-11-15T01:59:56.435Z,16.33
2022-11-15T02:02:24.146Z,16.42
2022-11-15T02:04:51.920Z,15.15
2022-11-15T02:07:23.441Z,15.65
2022-11-15T02:09:51.853Z,14.05
2022-11-15T02:12:23.139Z,14.82
2022-11-15T02:14:54.249Z,13.57
2022-11-15T02:17:35.728Z,17.42
2022-11-15T02:20:40.966Z,13.97
2022-11-15T02:23:27.481Z,14.75
2022-11-15T02:25:59.632Z,13.25
2022-11-15T02:28:43.783Z,16.60
2022-11-15T02:31:16.197Z,15.27
2022-11-15T02:33:49.201Z,13.20
2022-11-15T02:36:20.090Z,15.55
2022-11-15T02:38:52.347Z,13.43
2022-11-15T02:41:22.950Z,15.50
2022-11-15T02:43:58.603Z,16.30
2022-11-15T02:46:46.106Z,14.35
2022-11-15T02:49:14.449Z,15.90
2022-11-15T02:51:42.599Z,17.75
2022-11-15T02:54:14.197Z,14.07
2022-11-15T02:56:42.255Z,13.83
2022-11-15T02:59:19.020Z,16.15
2022-11-15T03:01:58.267Z,14.13
2022-11-15T03:04:33.659Z,12.95
2022-11-15T03:07:07.058Z,15.18
2022-11-15T03:09:36.829Z,14.02
2022-11-15T03:12:09.193Z,13.93
2022-11-15T03:14:40.226Z,14.93
2022-11-15T03:17:15.963Z,14.88
2022-11-15T03:19:47.797Z,12.77
2022-11-15T03:22:18.852Z,13.02
2022-11-15T03:24:48.005Z,14.47
2022-11-15T03:27:17.762Z,12.45
2022-11-15T03:29:47.395Z,14.38
2022-11-15T03:32:19.392Z,16.55
2022-11-15T03:34:49.962Z,13.38
2022-11-15T03:37:18.328Z,16.00
2022-11-15T03:39:46.887Z,14.70
2022-11-15T03:42:22.097Z,15.95
2022-11-15T03:44:54.121Z,13.27
2022-11-15T03:47:26.400Z,16.13
2022-11-15T03:49:55.359Z,13.13
2022-11-15T03:52:24.040Z,14.60
2022-11-15T03:54:52.985Z,13.18
2022-11-15T03:57:21.221Z,14.30
2022-11-15T03:59:48.820Z,11.40
2022-11-15T04:02:16.609Z,16.35
2022-11-15T04:04:45.509Z,11.65
2022-11-15T04:07:13.050Z,12.02
2022-11-15T04:09:54.966Z,11.90
2022-11-15T04:12:31.813Z,11.65
2022-11-15T04:15:11.082Z,13.70
2022-11-15T04:17:40.180Z,13.52
2022-11-15T04:20:29.283Z,14.43
2022-11-15T04:23:15.601Z,12.45
2022-11-15T04:25:43.717Z,13.50
2022-11-15T04:28:11.878Z,16.45
2022-11-15T04:30:40.189Z,12.30
2022-11-15T04:33:07.906Z,13.27
2022-11-15T04:35:39.504Z,12.82
2022-11-15T04:38:09.925Z,12.68
2022-11-15T04:40:38.166Z,17.80
2022-11-15T04:43:05.917Z,11.35
2022-11-15T04:45:33.450Z,14.77
2022-11-15T04:48:00.950Z,11.93
2022-11-15T04:50:28.905Z,12.25
2022-11-15T04:52:58.138Z,11.93
2022-11-15T04:55:25.886Z,15.13
2022-11-15T04:58:00.449Z,12.48
2022-11-15T05:00:30.411Z,11.37
2022-11-15T05:03:15.854Z,12.95
2022-11-15T05:05:43.802Z,14.75
2022-11-15T05:08:12.616Z,11.82
2022-11-15T05:10:40.226Z,12.25
2022-11-15T05:13:07.723Z,13.10
2022-11-15T05:15:35.368Z,13.85
2022-11-15T05:18:03.864Z,12.80
2022-11-15T05:20:31.481Z,16.00
2022-11-15T05:22:59.072Z,13.43
2022-11-15T05:25:29.147Z,11.23
2022-11-15T05:27:56.858Z,10.83
2022-11-15T05:30:24.435Z,13.02
2022-11-15T05:32:52.706Z,15.68
2022-11-15T05:35:22.326Z,13.30
2022-11-15T05:37:50.030Z,14.85
2022-11-15T05:40:18.164Z,11.55
2022-11-15T05:42:48.763Z,12.82
2022-11-15T05:45:16.660Z,12.70
2022-11-15T05:47:44.384Z,12.57
2022-11-15T05:50:13.640Z,15.57
2022-11-15T05:52:42.297Z,16.75
2022-11-15T05:55:10.782Z,13.23
2022-11-15T05:57:38.672Z,10.75
2022-11-15T06:00:10.357Z,13.57
2022-11-15T06:02:38.034Z,13.50
2022-11-15T06:05:06.671Z,12.15
2022-11-15T06:07:34.171Z,11.60
2022-11-15T06:10:01.699Z,9.37
2022-11-15T06:12:29.265Z,13.20
2022-11-15T06:14:56.796Z,13.10
2022-11-15T06:17:25.882Z,10.88
2022-11-15T06:19:53.422Z,13.07
2022-11-15T06:22:21.834Z,10.63
2022-11-15T06:24:49.864Z,11.32
2022-11-15T06:27:17.542Z,10.65
2022-11-15T06:29:45.071Z,10.85
2022-11-15T06:32:12.827Z,11.27
2022-11-15T06:34:41.616Z,12.80
2022-11-15T06:37:09.120Z,12.10
2022-11-15T06:39:36.823Z,10.53
2022-11-15T06:42:04.496Z,14.88
2022-11-15T06:44:31.997Z,10.75
2022-11-15T06:46:59.595Z,10.10
2022-11-15T06:49:27.390Z,8.82
2022-11-15T06:51:59.734Z,12.30
2022-11-15T06:54:27.675Z,10.97
2022-11-15T06:56:55.919Z,11.95
2022-11-15T06:59:23.467Z,11.43
2022-11-15T07:01:51.767Z,9.57
2022-11-15T07:04:19.277Z,15.67
2022-11-15T07:06:48.785Z,9.48
2022-11-15T07:09:17.953Z,10.57
2022-11-15T07:11:45.513Z,14.57
2022-11-15T07:14:13.110Z,10.10
2022-11-15T07:16:40.800Z,12.18
2022-11-15T07:19:08.460Z,10.77
2022-11-15T07:21:36.791Z,11.77
2022-11-15T07:24:04.978Z,11.68
2022-11-15T07:26:33.937Z,14.57
2022-11-15T07:29:01.808Z,9.05
2022-11-15T07:31:29.624Z,10.30
2022-11-15T07:33:58.956Z,13.47
2022-11-15T07:36:26.685Z,9.40
2022-11-15T07:38:54.361Z,12.88
2022-11-15T07:41:21.898Z,8.40
2022-11-15T07:43:53.169Z,9.50
2022-11-15T07:46:20.851Z,7.95
2022-11-15T07:48:48.519Z,10.25
2022-11-15T07:51:16.775Z,10.25
2022-11-15T07:53:44.691Z,8.52
2022-11-15T07:56:12.649Z,13.23
2022-11-15T07:58:40.166Z,12.02
2022-11-15T08:01:10.784Z,10.85
2022-11-15T08:03:39.025Z,10.82
2022-11-15T08:06:07.143Z,8.98
2022-11-15T08:08:34.657Z,9.27
2022-11-15T08:11:02.915Z,10.73
2022-11-15T08:13:31.858Z,11.52
2022-11-15T08:16:00.728Z,11.10
2022-11-15T08:18:29.877Z,8.52
2022-11-15T08:21:00.854Z,10.88
2022-11-15T08:23:28.740Z,8.02
2022-11-15T08:26:02.798Z,11.20
2022-11-15T08:28:31.452Z,8.15
2022-11-15T08:30:59.158Z,12.07
2022-11-15T08:33:26.751Z,7.80
2022-11-15T08:35:58.051Z,10.03
2022-11-15T08:38:27.150Z,8.50
2022-11-15T08:40:55.426Z,8.63
2022-11-15T08:43:23.122Z,7.50
2022-11-15T08:45:50.645Z,9.75
2022-11-15T08:48:18.292Z,7.85
2022-11-15T08:50:46.794Z,7.70
2022-11-15T08:53:15.711Z,5.20
2022-11-15T08:55:43.239Z,7.75
2022-11-15T08:58:10.993Z,5.80
2022-11-15T09:00:39.410Z,7.53
2022-11-15T09:03:07.368Z,5.85
2022-11-15T09:05:38.555Z,4.60
2022-11-15T09:08:25.550Z,5.97
2022-11-15T09:10:59.314Z,5.25
2022-11-15T09:13:26.948Z,9.30
2022-11-15T09:15:54.554Z,4.40
2022-11-15T09:18:24.696Z,3.03
2022-11-15T09:20:52.359Z,3.28
2022-11-15T09:23:20.050Z,3.20
2022-11-15T09:25:47.537Z,4.85
2022-11-15T09:28:17.210Z,4.32
2022-11-15T09:30:44.950Z,2.20
2022-11-15T09:33:13.956Z,4.82
2022-11-15T09:35:42.073Z,3.03
2022-11-15T09:38:10.008Z,4.05
2022-11-15T09:40:38.830Z,2.45
2022-11-15T09:43:22.792Z,1.53
2022-11-15T09:45:58.825Z,3.17
2022-11-15T09:48:43.876Z,2.75
2022-11-15T09:51:16.765Z,2.60
2022-11-15T09:56:39.384Z,2.83
2022-11-15T09:59:22.715Z,2.20
2022-11-15T10:01:56.132Z,2.07
2022-11-15T10:04:24.789Z,2.40
2022-11-15T10:06:58.683Z,4.38
2022-11-15T10:09:30.065Z,2.90
2022-11-15T10:11:58.241Z,3.05
2022-11-15T10:14:29.665Z,2.30
2022-11-15T10:17:09.870Z,5.60
2022-11-15T10:19:41.732Z,2.85
2022-11-15T10:22:21.070Z,3.45
2022-11-15T10:24:48.965Z,3.17
2022-11-15T10:27:18.129Z,2.33
2022-11-15T10:29:48.360Z,3.30
2022-11-15T10:32:19.367Z,2.50
2022-11-15T10:34:48.039Z,3.78
2022-11-15T10:37:15.637Z,2.08
2022-11-15T10:39:44.350Z,2.50
2022-11-15T10:42:29.259Z,3.75
2022-11-15T10:44:58.111Z,2.00
2022-11-15T10:47:37.717Z,1.77
2022-11-15T10:50:09.439Z,4.95
2022-11-15T10:52:38.252Z,3.78
2022-11-15T10:55:22.183Z,2.43
2022-11-15T10:57:53.774Z,2.30
2022-11-15T11:00:41.099Z,3.97
2022-11-15T11:03:27.126Z,2.73
2022-11-15T11:06:06.623Z,3.90
2022-11-15T11:08:35.045Z,1.90
2022-11-15T11:11:04.719Z,1.10
2022-11-15T11:13:33.804Z,2.42
2022-11-15T11:16:21.029Z,3.28
2022-11-15T11:18:53.903Z,7.15
2022-11-15T11:21:33.021Z,5.13
2022-11-15T11:24:10.428Z,3.20
2022-11-15T11:26:44.224Z,2.63
2022-11-15T11:29:26.797Z,2.55
2022-11-15T11:32:02.232Z,3.95
2022-11-15T11:34:38.940Z,2.80
2022-11-15T11:37:13.468Z,4.97
2022-11-15T11:39:46.608Z,17.02
2022-11-15T11:42:20.107Z,5.75
2022-11-15T11:44:54.361Z,4.72
2022-11-15T11:47:26.060Z,6.03
2022-11-15T11:49:55.301Z,3.40
2022-11-15T11:52:27.981Z,1.10
2022-11-15T11:55:02.329Z,3.25
2022-11-15T11:57:36.438Z,4.45
2022-11-15T12:00:12.209Z,8.60
2022-11-15T12:02:43.696Z,6.57
2022-11-15T12:05:15.429Z,2.00
2022-11-15T12:07:44.204Z,1.52
2022-11-15T12:10:22.047Z,1.58
2022-11-15T12:12:56.271Z,4.35
2022-11-15T12:15:27.245Z,4.82
2022-11-15T12:17:57.147Z,4.63
2022-11-15T12:20:26.269Z,2.13
2022-11-15T12:22:57.526Z,6.85
2022-11-15T12:25:30.791Z,2.15
2022-11-15T12:28:01.307Z,2.53
2022-11-15T12:30:39.665Z,2.38
2022-11-15T12:33:31.994Z,4.63
2022-11-15T12:36:00.997Z,2.83
2022-11-15T12:38:55.950Z,2.20
2022-11-15T12:41:26.212Z,2.50
2022-11-15T12:43:54.134Z,1.83
2022-11-15T12:46:25.303Z,1.08
2022-11-15T12:48:56.866Z,2.65
2022-11-15T12:52:09.238Z,1.48
2022-11-15T12:54:57.881Z,2.22
2022-11-15T12:57:46.623Z,2.03
2022-11-15T13:00:48.015Z,2.47
2022-11-15T13:03:30.065Z,3.15
2022-11-15T13:06:06.581Z,1.23
2022-11-15T13:08:44.743Z,4.47
2022-11-15T13:11:53.115Z,6.18
2022-11-15T13:14:48.757Z,4.38
2022-11-15T13:17:41.373Z,4.30
2022-11-15T13:20:24.906Z,4.13
2022-11-15T13:23:03.491Z,2.87
2022-11-15T13:25:51.033Z,2.00
2022-11-15T13:28:25.101Z,17.88
2022-11-15T13:30:55.000Z,4.00
2022-11-15T13:33:25.249Z,2.60
2022-11-15T13:35:55.925Z,5.28
2022-11-15T13:38:31.142Z,2.47
2022-11-15T13:41:00.051Z,2.20
2022-11-15T13:44:35.401Z,1.73
2022-11-15T13:47:06.436Z,2.00
2022-11-15T13:49:38.440Z,1.23
2022-11-15T13:52:08.578Z,1.27
2022-11-15T13:54:42.689Z,1.80
2022-11-15T13:57:13.870Z,3.00
2022-11-15T13:59:47.425Z,3.20
2022-11-15T14:02:19.963Z,4.50
2022-11-15T14:04:51.925Z,2.47
2022-11-15T14:07:22.299Z,2.20
2022-11-15T14:09:52.794Z,1.20
2022-11-15T14:12:26.842Z,8.45
2022-11-15T14:14:56.433Z,1.80
2022-11-15T14:17:36.834Z,1.85
2022-11-15T14:20:05.425Z,3.90
2022-11-15T14:22:33.345Z,2.90
2022-11-15T14:25:16.972Z,7.38
2022-11-15T14:27:46.757Z,2.90
2022-11-15T14:30:26.851Z,1.83
2022-11-15T14:33:58.758Z,1.50
2022-11-15T14:36:26.354Z,4.25
2022-11-15T14:38:55.189Z,3.40
2022-11-15T14:41:27.653Z,3.63
2022-11-15T14:43:57.574Z,2.63
2022-11-15T14:46:26.503Z,2.30
2022-11-15T14:48:55.090Z,3.53
2022-11-15T14:51:23.411Z,38.43
2022-11-15T14:53:52.053Z,37.47
2022-11-15T14:56:20.905Z,24.88
2022-11-15T14:58:51.498Z,8.07
2022-11-15T15:01:22.831Z,6.57
2022-11-15T15:03:52.709Z,3.15
2022-11-15T15:06:20.577Z,4.28
2022-11-15T15:08:51.626Z,2.08
2022-11-15T15:11:23.229Z,2.85
2022-11-15T15:13:53.453Z,5.30
2022-11-15T15:16:21.137Z,3.15
2022-11-15T15:18:50.828Z,4.13
2022-11-15T15:21:22.736Z,3.78
2022-11-15T15:23:51.188Z,3.00
2022-11-15T15:26:19.165Z,1.83
2022-11-15T15:28:48.672Z,2.00
2022-11-15T15:31:17.803Z,2.35
2022-11-15T15:33:45.630Z,2.20
2022-11-15T15:36:14.926Z,5.32
2022-11-15T15:38:44.123Z,5.63
2022-11-15T15:41:12.840Z,2.50
2022-11-15T15:43:41.265Z,2.67
2022-11-15T15:46:11.334Z,4.60
2022-11-15T15:48:40.605Z,2.00
2022-11-15T15:51:15.454Z,1.87
2022-11-15T15:53:46.755Z,1.90
2022-11-15T15:56:14.363Z,3.10
2022-11-15T15:58:42.008Z,1.00
2022-11-15T16:01:10.477Z,2.20
2022-11-15T16:03:38.495Z,2.58
2022-11-15T16:06:29.211Z,1.88
2022-11-15T16:09:14.274Z,2.40
2022-11-15T16:11:43.844Z,4.22
2022-11-15T16:14:11.435Z,2.43
2022-11-15T16:16:39.231Z,4.70
2022-11-15T16:19:07.062Z,4.00
2022-11-15T16:21:36.306Z,4.65
2022-11-15T16:24:05.570Z,4.57
2022-11-15T16:26:38.543Z,4.53
2022-11-15T16:29:07.780Z,4.93
2022-11-15T16:31:35.364Z,10.65
2022-11-15T16:34:03.200Z,2.80
2022-11-15T16:36:33.281Z,4.40
2022-11-15T16:39:08.223Z,2.60
2022-11-15T16:41:35.761Z,3.30
2022-11-15T16:44:04.380Z,2.80
2022-11-15T16:46:32.239Z,1.45
2022-11-15T16:49:01.929Z,3.00
2022-11-15T16:51:30.060Z,4.20
2022-11-15T16:53:57.642Z,5.38
2022-11-15T16:56:29.455Z,3.77
2022-11-15T16:58:59.601Z,4.97
2022-11-15T17:01:30.855Z,4.03
2022-11-15T17:03:58.659Z,4.75
2022-11-15T17:06:27.405Z,3.53
2022-11-15T17:08:56.549Z,5.90
2022-11-15T17:11:24.872Z,4.38
2022-11-15T17:13:58.566Z,2.58
2022-11-15T17:16:27.360Z,3.63
2022-11-15T17:19:01.658Z,5.30
2022-11-15T17:21:33.639Z,3.15
2022-11-15T17:24:01.675Z,3.67
2022-11-15T17:26:32.015Z,3.28
2022-11-15T17:29:04.394Z,5.43
2022-11-15T17:31:33.764Z,2.50
2022-11-15T17:34:02.124Z,3.67
2022-11-15T17:36:30.358Z,5.97
2022-11-15T17:38:59.884Z,4.53
2022-11-15T17:41:29.429Z,4.63
2022-11-15T17:43:59.110Z,4.97
2022-11-15T17:46:29.271Z,5.37
2022-11-15T17:49:02.343Z,3.80
2022-11-15T17:51:29.958Z,4.50
2022-11-15T17:53:57.658Z,4.00
2022-11-15T17:56:27.440Z,4.30
2022-11-15T17:58:56.707Z,6.95
2022-11-15T18:01:27.157Z,4.40
2022-11-15T18:04:02.215Z,5.60
2022-11-15T18:06:33.757Z,4.97
2022-11-15T18:09:04.670Z,5.45
2022-11-15T18:11:34.434Z,5.53
2022-11-15T18:14:04.569Z,4.50
2022-11-15T18:16:34.650Z,5.32
2022-11-15T18:19:10.290Z,7.10
2022-11-15T18:21:55.947Z,5.50
2022-11-15T18:24:24.407Z,3.08
2022-11-15T18:26:52.200Z,4.60
2022-11-15T18:29:21.466Z,4.93
2022-11-15T18:31:50.518Z,4.88
2022-11-15T18:34:21.424Z,7.20
2022-11-15T18:36:51.344Z,5.40
2022-11-15T18:39:20.285Z,5.35
2022-11-15T18:41:48.960Z,4.10
2022-11-15T18:44:17.167Z,8.63
2022-11-15T18:46:47.010Z,4.10
2022-11-15T18:49:16.634Z,5.03
2022-11-15T18:51:46.669Z,6.60
2022-11-15T18:54:16.592Z,4.95
2022-11-15T18:56:45.934Z,3.90
2022-11-15T18:59:14.078Z,4.38
2022-11-15T19:01:43.310Z,4.40
2022-11-15T19:04:13.407Z,8.13
2022-11-15T19:06:44.289Z,6.22
2022-11-15T19:09:16.453Z,7.07
2022-11-15T19:11:45.800Z,5.97
2022-11-15T19:14:16.053Z,4.72
2022-11-15T19:16:50.116Z,4.90
2022-11-15T19:19:20.682Z,5.82
2022-11-15T19:21:50.559Z,7.13
2022-11-15T19:24:19.764Z,4.78
2022-11-15T19:26:49.058Z,7.40
2022-11-15T19:29:19.225Z,4.68
2022-11-15T19:31:48.570Z,3.72
2022-11-15T19:34:18.394Z,5.13
2022-11-15T19:36:46.628Z,3.28
2022-11-15T19:39:17.816Z,5.68
2022-11-15T19:41:50.271Z,6.10
2022-11-15T19:44:18.938Z,4.90
2022-11-15T19:46:47.846Z,5.82
2022-11-15T19:49:18.754Z,5.10
2022-11-15T19:51:48.603Z,5.28
2022-11-15T19:54:19.001Z,4.68
2022-11-15T19:56:53.231Z,8.60
2022-11-15T19:59:21.641Z,6.80
2022-11-15T20:01:49.348Z,7.57
2022-11-15T20:04:17.064Z,5.05
2022-11-15T20:06:44.967Z,5.43
2022-11-15T20:09:14.510Z,6.38
2022-11-15T20:11:42.439Z,6.32
2022-11-15T20:14:13.435Z,5.20
2022-11-15T20:16:41.082Z,5.00
2022-11-15T20:19:09.730Z,6.50
2022-11-15T20:21:38.241Z,5.88
2022-11-15T20:24:08.375Z,4.53
2022-11-15T20:26:36.779Z,3.38
2022-11-15T20:29:05.400Z,5.03
2022-11-15T20:31:34.952Z,6.40
2022-11-15T20:34:04.391Z,4.80
2022-11-15T20:36:33.011Z,4.57
2022-11-15T20:39:02.056Z,5.40
2022-11-15T20:41:30.920Z,5.57
2022-11-15T20:43:59.657Z,4.97
2022-11-15T20:46:28.166Z,5.07
2022-11-15T20:48:57.344Z,5.63
2022-11-15T20:51:25.550Z,4.00
2022-11-15T20:53:53.279Z,6.75
2022-11-15T20:56:22.653Z,6.15
2022-11-15T20:58:53.328Z,5.13
2022-11-15T21:01:27.407Z,6.63
2022-11-15T21:03:58.224Z,4.90
2022-11-15T21:06:27.041Z,4.65
2022-11-15T21:09:13.003Z,5.95
2022-11-15T21:11:58.699Z,3.45
2022-11-15T21:14:31.920Z,4.27
2022-11-15T21:16:59.692Z,5.15
2022-11-15T21:19:35.498Z,6.38
2022-11-15T21:22:06.471Z,5.10
2022-11-15T21:24:34.148Z,5.65
2022-11-15T21:27:02.579Z,5.07
2022-11-15T21:29:37.387Z,4.45
2022-11-15T21:32:07.302Z,4.80
2022-11-15T21:34:37.529Z,4.78
2022-11-15T21:40:46.058Z,6.60
2022-11-15T21:43:13.617Z,6.07
2022-11-15T21:45:41.189Z,3.95
2022-11-15T21:48:09.241Z,4.75
2022-11-15T21:50:39.615Z,5.97
2022-11-15T21:53:07.909Z,5.15
2022-11-15T21:55:40.954Z,7.15
2022-11-15T21:58:10.832Z,5.47
2022-11-15T22:00:56.540Z,5.22
2022-11-15T22:07:07.681Z,5.50
2022-11-15T22:09:35.407Z,3.92
2022-11-15T22:12:05.276Z,7.05
2022-11-15T22:14:34.191Z,5.78
2022-11-15T22:17:03.574Z,6.22
2022-11-15T22:19:32.975Z,7.03
2022-11-15T22:22:00.968Z,7.47
2022-11-15T22:24:30.798Z,4.40
2022-11-15T22:26:58.536Z,7.30
2022-11-15T22:29:26.100Z,7.03
2022-11-15T22:31:53.734Z,8.43
2022-11-15T22:34:21.903Z,6.43
2022-11-15T22:37:18.294Z,6.78
2022-11-15T22:39:42.798Z,6.65
2022-11-15T22:42:10.468Z,5.65
2022-11-15T22:44:39.313Z,9.00
2022-11-15T22:47:06.876Z,6.80
2022-11-15T22:49:34.487Z,6.63
2022-11-15T22:52:02.271Z,5.25
2022-11-15T22:54:32.358Z,7.40
2022-11-15T22:57:01.796Z,5.38
2022-11-15T22:59:32.128Z,4.93
2022-11-15T23:01:59.714Z,6.63
2022-11-15T23:04:27.367Z,9.40
2022-11-15T23:06:55.423Z,4.85
2022-11-15T23:09:23.269Z,6.40
2022-11-15T23:12:08.651Z,7.18
2022-11-15T23:14:37.713Z,8.20
2022-11-15T23:17:06.694Z,6.20
2022-11-15T23:19:34.756Z,5.43
2022-11-15T23:22:21.214Z,6.78
2022-11-15T23:24:49.312Z,6.05
2022-11-15T23:27:19.928Z,5.60
2022-11-15T23:30:08.482Z,6.00
2022-11-15T23:32:53.832Z,6.55
2022-11-15T23:35:21.689Z,5.90
2022-11-15T23:37:49.840Z,6.83
2022-11-15T23:40:18.009Z,6.80
2022-11-15T23:42:46.529Z,6.28
2022-11-15T23:45:15.580Z,5.93
2022-11-15T23:47:45.252Z,7.93
2022-11-15T23:50:22.245Z,6.80
2022-11-15T23:52:52.471Z,8.00
2022-11-15T23:55:20.053Z,7.93
2022-11-15T23:57:47.663Z,6.63
